Dana Point, CA

3:14 PM PDT on September 04, 2015 (GMT -0700)
The Coast | | Change Station
CLOSE
Current Station
Personal Weather Station
Location: San Clemente, CA
Elevation: 350 ft
Nearby Weather Stations
Active Advisory: Beach Hazard Statement

Elev 350 ft 33.45 °N, 117.64 °W | Updated 20 seconds ago

Clear
Clear
69.4 °F
Feels Like 69.4 °F
N
5.0
Wind Variable Wind from WSW
Gusts 16.0 mph

Today
High -- | Low -- °F
--% Chance of Precip.
Yesterday
High -- | Low -- °F
Precip. -- in
6:26 AM 7:12 PM
Waning Gibbous, 55% visible
Pressure 30.10 in
Visibility 8.0 miles
Clouds Clear
Dew Point 60 °F
Humidity 73%
Rainfall 0.00 in
Snow Depth Not available.
UV 8 out of 12
Pollen 8.40 out of 12
Air Quality Not available.
Flu Activity Not available.
METAR KNXF 042156Z AUTO 25008KT 8SM CLR 24/14 A2985 RMK AO2 SLP193 T02390144 $
Pressure 30.10 in
Visibility 8.0 miles
Clouds Clear
Dew Point 60 °F
Humidity 73%
Rainfall 0.00 in
Snow Depth Not available.
UV 8 out of 12
Pollen 8.40 out of 12
Air Quality Not available.
Flu Activity Not available.
METAR KNXF 042156Z AUTO 25008KT 8SM CLR 24/14 A2985 RMK AO2 SLP193 T02390144 $

10-Day Weather Forecast

×

Almanac

Astronomy

Sep. 04, 2015 Rise Set
Actual Time
Civil Twilight
Nautical Twilight
Astronomical Twilight
Moon
Length of Visible Light
Length of Day
Tomorrow will be .
, % of the Moon is Illuminated

Today's Extremes

State Highs State Lows

Community

WunderPhotos

Upload Photos

1,852,307 photos uploaded!

WunderBlogs® & News

Nearby

Air Quality

  Air Quality AQ Index Pollutant
Not available.

Snow Depth

Station Depth Elevation

Earthquake Activity

City Distance Mag. Time & Date
Minimum magnitude displayed is 2.5.

Coastal Water Temperatures

Place Temperature

Stations

Nearby Weather Stations

Station Location Temp. Windchill Dew Point Humidity Wind Precip. Elev Updated Type
                   
Beach Hazard Statement
Statement as of 1:46 PM PDT on September 04, 2015

... Beach hazards statement remains in effect from Saturday
morning through Tuesday evening...

* waves and surf... building to 4 to 6 feet with 7 to 8 foot sets
on south and southwest facing beaches.

* Timing... surf building during the day Saturday... peaking Sunday
into Monday... and remaining elevated through Tuesday.

* Impacts... strong and frequent rip and longshore currents will
create hazardous swimming conditions.

Precautionary/preparedness actions...

A beach hazards statement for rip currents means that conditions
are present to support a heightened risk of strong rip currents.
Rip currents are typically more frequent and stronger in the
vicinity of jetties... inlets... and piers. Swimmers caught in a
rip current should swim parallel to the coast to escape the rip
current before trying to swim for shore. Swimmers should always
swim near a lifeguard.


Jt

Http://www.Weather.Gov/sandiego